Time;durP1;ratioP1;P1;durP2;ratioP2;P2;SDS_P1;SDS_P2;PMS_P1;PMS_P2;Temp;Humidity;BMP_temperature;BMP_pressure;BME280_temperature;BME280_humidity;BME280_pressure;Samples;Min_cycle;Max_cycle;Signal;HPM_P1;HPM_P2
2022/01/13 00:00:00;;;;;;;39.63;17.60;;;-6.10;38.30;;;-5.85;90.60;100030.25;4983038;28;122141;-75
2022/01/13 00:02:33;;;;;;;33.78;17.35;;;-6.10;38.50;;;-5.75;90.75;100024.63;4983126;28;121450;-74
2022/01/13 00:05:02;;;;;;;35.15;17.75;;;-6.10;39.20;;;-5.75;90.45;100015.88;4983599;28;128902;-75
2022/01/13 00:07:31;;;;;;;34.20;17.00;;;-6.00;38.00;;;-5.80;90.69;100000.59;4981678;28;130416;-75
2022/01/13 00:09:59;;;;;;;40.15;19.63;;;-6.00;36.90;;;-5.81;91.43;99994.50;4994570;28;119371;-75
2022/01/13 00:12:33;;;;;;;33.17;16.38;;;-6.00;35.50;;;-5.69;91.26;100001.91;4990680;28;119083;-75
2022/01/13 00:15:19;;;;;;;39.15;18.75;;;-6.00;35.40;;;-5.65;89.99;100016.38;4983355;28;130396;-75
2022/01/13 00:18:10;;;;;;;35.92;18.05;;;-5.90;35.20;;;-5.77;90.39;100001.03;4980408;28;129490;-75
2022/01/13 00:23:42;;;;;;;35.13;17.70;;;-5.90;31.50;;;-5.77;91.25;99994.94;4982223;28;119065;-75
2022/01/13 00:26:19;;;;;;;43.65;19.65;;;-5.80;31.00;;;-5.71;91.26;99988.88;4995501;28;129708;-76
2022/01/13 00:28:50;;;;;;;39.42;18.85;;;-5.80;30.70;;;-5.74;91.38;99967.28;4993588;28;129453;-76
2022/01/13 00:31:30;;;;;;;44.15;19.70;;;-5.80;29.60;;;-5.74;91.48;99962.81;4999667;28;119332;-75
2022/01/13 00:34:03;;;;;;;44.88;19.60;;;-5.80;29.40;;;-5.79;91.66;99954.66;4983352;28;119241;-76
2022/01/13 00:36:34;;;;;;;43.63;20.35;;;-5.80;29.10;;;-5.84;92.28;99968.44;4997292;28;130021;-75
2022/01/13 00:39:05;;;;;;;44.78;20.25;;;-5.80;28.90;;;-6.05;92.82;99945.53;4979351;28;129209;-76
2022/01/13 00:41:34;;;;;;;44.67;21.13;;;-5.80;29.10;;;-5.92;93.40;99950.09;4983003;28;118429;-76
2022/01/13 00:44:07;;;;;;;49.22;20.58;;;-5.80;29.80;;;-5.86;93.35;99944.03;4984013;28;118597;-77
2022/01/13 00:46:56;;;;;;;45.75;20.17;;;-5.70;30.00;;;-5.88;93.02;99950.53;4980955;28;129679;-77
2022/01/13 00:49:25;;;;;;;43.92;20.40;;;-5.70;30.10;;;-5.77;93.37;99953.44;4978391;28;129849;-77
2022/01/13 00:51:54;;;;;;;47.00;21.75;;;-5.70;30.90;;;-5.61;92.74;99959.44;4995912;28;121353;-76
2022/01/13 00:54:23;;;;;;;50.03;21.45;;;-5.70;30.80;;;-5.62;92.16;99955.16;4980342;28;120661;-76
2022/01/13 00:56:51;;;;;;;45.33;20.60;;;-5.70;30.40;;;-5.57;92.44;99950.09;4981033;28;130789;-76
2022/01/13 00:59:20;;;;;;;53.92;21.45;;;-5.60;30.20;;;-5.67;92.32;99941.69;4982572;28;129193;-76
2022/01/13 01:01:54;;;;;;;52.88;22.13;;;-5.70;30.00;;;-5.80;93.09;99934.50;4980845;28;119637;-75
2022/01/13 01:04:23;;;;;;;47.15;21.48;;;-5.70;29.70;;;-5.82;93.67;99937.34;4981123;28;119659;-77
2022/01/13 01:06:52;;;;;;;49.30;21.83;;;-5.60;30.00;;;-5.65;92.66;99950.28;4983199;28;130671;-77
2022/01/13 01:09:30;;;;;;;40.00;19.38;;;-5.60;30.00;;;-5.57;92.59;99955.41;4981328;28;129594;-76
2022/01/13 01:11:58;;;;;;;45.60;21.42;;;-5.60;29.90;;;-5.59;92.91;99944.22;4981556;28;119450;-76
2022/01/13 01:14:29;;;;;;;49.97;21.00;;;-5.60;29.90;;;-5.52;92.03;99954.81;4980779;28;119439;-77
2022/01/13 01:16:59;;;;;;;46.75;21.30;;;-5.60;29.90;;;-5.47;91.88;99942.66;4981952;28;130023;-76
2022/01/13 01:19:29;;;;;;;44.08;23.00;;;-5.60;29.60;;;-5.40;91.28;99947.16;4982487;28;129750;-75
2022/01/13 01:22:35;;;;;;;47.65;22.00;;;-5.60;29.40;;;-5.33;91.91;99932.13;5003210;28;119201;-76
2022/01/13 01:27:50;;;;;;;42.65;20.48;;;-5.50;29.00;;;-5.28;90.89;99940.31;4976054;28;129067;-76
2022/01/13 01:30:29;;;;;;;51.42;21.77;;;-5.50;29.40;;;-5.22;91.12;99939.47;4981733;28;130107;-76
2022/01/13 01:32:59;;;;;;;45.92;21.52;;;-5.50;29.00;;;-5.31;91.51;99930.91;4999602;28;119897;-76
2022/01/13 01:35:28;;;;;;;48.50;22.35;;;-5.50;28.90;;;-5.27;91.34;99923.38;5019087;28;119629;-76
2022/01/13 01:37:57;;;;;;;43.92;20.77;;;-5.40;29.70;;;-5.14;91.98;99915.50;4983783;28;130656;-76
2022/01/13 01:40:25;;;;;;;50.65;23.33;;;-5.40;30.40;;;-5.13;91.57;99901.25;5002196;28;128916;-76
2022/01/13 01:42:53;;;;;;;44.80;21.63;;;-5.30;31.00;;;-5.23;92.33;99884.94;4979859;28;121222;-77
2022/01/13 01:45:25;;;;;;;51.90;21.85;;;-5.30;31.30;;;-5.16;92.73;99896.34;4981619;28;120694;-75
2022/01/13 01:47:54;;;;;;;48.25;22.20;;;-5.30;31.70;;;-5.18;92.50;99903.69;4983693;28;129858;-75
2022/01/13 01:50:24;;;;;;;48.67;22.55;;;-5.30;31.30;;;-5.09;91.93;99891.91;4970405;28;129257;-76
2022/01/13 01:52:54;;;;;;;48.17;21.73;;;-5.20;31.40;;;-5.03;92.30;99886.81;4987089;28;119515;-76
2022/01/13 01:55:23;;;;;;;47.20;23.02;;;-5.20;31.40;;;-4.92;91.83;99875.66;4983834;28;120020;-75
2022/01/13 01:57:57;;;;;;;51.38;24.17;;;-5.20;31.80;;;-4.95;91.89;99870.78;4968382;28;128431;-76
2022/01/13 02:00:27;;;;;;;46.50;21.10;;;-5.20;31.30;;;-4.98;91.79;99876.47;4968153;28;129312;-76
2022/01/13 02:02:56;;;;;;;39.33;19.30;;;-5.20;30.60;;;-4.99;91.74;99865.03;4983083;28;118629;-76
2022/01/13 02:05:26;;;;;;;48.08;23.13;;;-5.20;30.30;;;-4.95;91.46;99861.00;5014782;28;119942;-76
2022/01/13 02:07:55;;;;;;;53.80;21.38;;;-5.20;30.50;;;-5.07;91.40;99842.22;4982565;28;130188;-76
2022/01/13 02:10:24;;;;;;;48.13;21.33;;;-5.20;30.00;;;-4.92;91.42;99850.00;5000849;28;129354;-76
2022/01/13 02:13:01;;;;;;;48.78;22.35;;;-5.20;31.10;;;-4.94;91.78;99845.91;4985902;28;118499;-76
2022/01/13 02:15:34;;;;;;;47.95;21.25;;;-5.20;31.20;;;-4.87;91.98;99852.84;4984729;28;118872;-76
2022/01/13 02:18:07;;;;;;;45.38;22.67;;;-5.20;31.70;;;-4.79;91.24;99849.19;4983438;28;130430;-76
2022/01/13 02:20:49;;;;;;;46.78;22.45;;;-5.10;32.40;;;-4.71;91.33;99827.81;5001930;28;129177;-75
2022/01/13 02:23:37;;;;;;;57.60;25.48;;;-5.00;33.40;;;-4.73;93.16;99816.59;4985230;28;119157;-76
2022/01/13 02:26:09;;;;;;;52.20;25.20;;;-4.90;36.50;;;-4.75;94.64;99823.94;4983760;28;119650;-75
2022/01/13 02:28:39;;;;;;;63.55;29.40;;;-4.70;40.50;;;-4.51;96.00;99797.84;4970459;28;129226;-75
2022/01/13 02:31:08;;;;;;;67.38;30.58;;;-4.50;47.80;;;-4.42;96.96;99795.81;4980648;28;129730;-75
2022/01/13 02:33:37;;;;;;;69.53;31.05;;;-4.30;49.80;;;-4.46;98.01;99784.81;4983215;28;121360;-76
2022/01/13 02:36:09;;;;;;;68.00;30.58;;;-4.20;51.80;;;-4.30;98.10;99777.44;4984155;28;122025;-76
2022/01/13 02:38:38;;;;;;;69.28;31.02;;;-4.10;53.60;;;-4.25;98.24;99780.31;4999861;28;129830;-75
2022/01/13 02:41:06;;;;;;;74.80;31.45;;;-4.00;55.90;;;-4.23;98.72;99765.81;4983522;28;129643;-76
2022/01/13 02:43:35;;;;;;;70.70;30.90;;;-4.00;58.90;;;-4.20;98.46;99762.75;5001963;28;117993;-75
2022/01/13 02:46:29;;;;;;;74.22;30.95;;;-4.00;60.40;;;-4.30;99.54;99746.47;5001482;28;118628;-76
2022/01/13 02:48:59;;;;;;;73.78;30.25;;;-3.90;61.90;;;-4.31;100.00;99765.22;4977485;28;130830;-76
2022/01/13 02:51:29;;;;;;;71.70;31.77;;;-3.90;62.30;;;-4.34;100.00;99764.59;4984340;28;128527;-76
2022/01/13 02:53:57;;;;;;;66.78;31.98;;;-3.90;61.80;;;-4.17;100.00;99745.63;4983268;28;119438;-76
2022/01/13 02:56:29;;;;;;;67.97;31.55;;;-3.90;63.20;;;-4.10;99.64;99730.47;4982677;28;119969;-75
2022/01/13 02:58:58;;;;;;;70.82;32.90;;;-3.80;64.40;;;-4.09;99.46;99715.41;4981729;28;129353;-75
2022/01/13 03:01:27;;;;;;;70.57;31.23;;;-3.80;64.40;;;-4.03;99.44;99707.44;4982216;28;129697;-75
2022/01/13 03:03:57;;;;;;;74.28;31.27;;;-3.80;64.70;;;-3.93;99.39;99700.88;4983542;28;119496;-75
2022/01/13 03:06:32;;;;;;;67.50;30.02;;;-3.80;64.70;;;-3.94;99.70;99697.41;4967008;28;119269;-75
2022/01/13 03:09:10;;;;;;;71.95;30.05;;;-3.80;64.50;;;-4.00;99.32;99685.78;4982718;28;130574;-75
2022/01/13 03:11:39;;;;;;;66.07;29.13;;;-3.70;63.60;;;-3.90;98.92;99687.97;4982634;28;130217;-75
2022/01/13 03:14:11;;;;;;;70.47;31.52;;;-3.70;63.10;;;-3.93;98.89;99669.03;4983412;28;120170;-76
2022/01/13 03:16:41;;;;;;;66.45;30.70;;;-3.70;62.70;;;-3.97;99.27;99666.81;4984122;28;119544;-76
2022/01/13 03:19:11;;;;;;;74.32;33.25;;;-3.60;60.70;;;-3.92;99.21;99678.63;4981469;28;129884;-76
2022/01/13 03:21:40;;;;;;;75.47;30.48;;;-3.60;60.30;;;-3.92;99.41;99690.03;4997581;28;130278;-76
2022/01/13 03:24:12;;;;;;;73.85;32.50;;;-3.60;59.60;;;-3.90;99.57;99713.69;4982256;28;122306;-75
2022/01/13 03:26:42;;;;;;;65.65;29.80;;;-3.60;58.50;;;-3.89;99.35;99716.13;4975850;28;121899;-76
2022/01/13 03:29:19;;;;;;;67.32;30.02;;;-3.60;59.10;;;-3.83;99.57;99696.72;4983395;28;129723;-76
2022/01/13 03:31:50;;;;;;;75.60;31.75;;;-3.50;59.50;;;-3.80;99.09;99703.47;4991570;28;128962;-76
2022/01/13 03:34:19;;;;;;;74.82;30.70;;;-3.50;58.40;;;-3.85;99.47;99690.84;4982573;28;119414;-75
2022/01/13 03:36:49;;;;;;;73.63;32.75;;;-3.50;59.20;;;-3.71;99.06;99688.94;4995061;28;118667;-75
2022/01/13 03:39:23;;;;;;;69.57;31.55;;;-3.50;59.50;;;-3.68;99.36;99680.50;4981465;28;128761;-75
2022/01/13 03:41:52;;;;;;;66.97;30.83;;;-3.40;59.90;;;-3.62;98.91;99687.63;4977791;28;130531;-75
2022/01/13 03:44:28;;;;;;;73.72;30.48;;;-3.40;60.00;;;-3.67;99.22;99660.94;4983682;28;120356;-75
2022/01/13 03:46:59;;;;;;;68.07;31.08;;;-3.40;60.00;;;-3.58;99.74;99658.00;4982856;28;120085;-76
2022/01/13 03:49:27;;;;;;;69.78;31.95;;;-3.30;60.50;;;-3.61;100.00;99654.75;4981829;28;129461;-75
2022/01/13 03:52:53;;;;;;;66.25;31.77;;;-3.30;61.10;;;-3.51;99.49;99638.34;4982562;28;130640;-75
2022/01/13 03:56:13;;;;;;;75.43;33.20;;;-3.30;60.90;;;-3.39;98.92;99629.72;4981927;28;118976;-76
2022/01/13 03:59:36;;;;;;;78.25;32.83;;;-3.20;62.30;;;-3.43;99.48;99645.25;4969207;28;118370;-75
2022/01/13 04:02:10;;;;;;;71.88;30.63;;;-3.20;63.50;;;-3.42;99.84;99646.88;4979989;28;128916;-76
2022/01/13 04:04:42;;;;;;;74.30;31.80;;;-3.20;64.50;;;-3.46;100.00;99629.75;4983352;28;127340;-76
2022/01/13 04:07:15;;;;;;;71.75;31.02;;;-3.10;64.40;;;-3.34;100.00;99622.72;4997035;28;120574;-76
2022/01/13 04:11:00;;;;;;;72.05;31.88;;;-3.10;64.30;;;-3.28;99.60;99610.44;4977124;28;119593;-76
2022/01/13 04:13:45;;;;;;;67.43;30.42;;;-3.10;63.90;;;-3.15;99.61;99604.97;4981211;28;129480;-76
2022/01/13 04:16:17;;;;;;;72.65;30.40;;;-3.00;64.30;;;-3.08;98.68;99604.94;4982229;28;129256;-76
2022/01/13 04:18:48;;;;;;;68.32;30.35;;;-3.00;64.00;;;-3.06;99.04;99584.28;4973886;28;122080;-77
2022/01/13 04:21:18;;;;;;;66.35;30.63;;;-3.00;64.20;;;-3.07;99.07;99577.34;4982171;28;122014;-77
2022/01/13 04:23:53;;;;;;;64.65;31.40;;;-3.00;63.50;;;-3.09;99.10;99550.19;4976638;28;129709;-76
2022/01/13 04:26:27;;;;;;;72.25;30.33;;;-3.00;62.80;;;-3.04;98.50;99542.38;4982890;28;129665;-77
2022/01/13 04:29:19;;;;;;;72.75;32.63;;;-3.00;62.20;;;-2.95;98.08;99551.69;4966393;28;118733;-77
2022/01/13 04:31:51;;;;;;;70.85;29.92;;;-3.00;62.10;;;-3.02;98.05;99556.25;4983472;28;118756;-77
2022/01/13 04:34:21;;;;;;;71.32;30.92;;;-3.00;61.50;;;-3.18;98.52;99539.06;4980701;28;129783;-76
2022/01/13 04:36:51;;;;;;;74.60;31.20;;;-3.00;60.70;;;-3.11;98.25;99536.34;4981150;28;129465;-77
2022/01/13 04:39:19;;;;;;;67.32;31.73;;;-3.00;60.60;;;-3.09;98.71;99534.28;4977498;28;119523;-77
2022/01/13 04:41:48;;;;;;;72.70;30.33;;;-3.00;60.60;;;-3.12;98.95;99540.03;4981352;28;119845;-77
2022/01/13 04:44:22;;;;;;;70.80;29.75;;;-3.00;59.60;;;-3.05;98.49;99538.13;4979469;28;130518;-77
2022/01/13 04:46:55;;;;;;;65.22;29.27;;;-3.00;60.00;;;-2.99;97.79;99545.19;4976413;28;129945;-78
2022/01/13 04:49:24;;;;;;;59.22;28.63;;;-3.00;60.10;;;-3.00;97.97;99543.56;4965014;28;118640;-77
2022/01/13 04:51:52;;;;;;;64.50;29.70;;;-3.00;60.00;;;-3.05;98.33;99564.69;4983312;28;121699;-77
2022/01/13 04:54:21;;;;;;;75.38;30.65;;;-3.00;60.00;;;-2.94;98.06;99577.22;4976863;28;129931;-76
2022/01/13 04:57:06;;;;;;;66.68;29.10;;;-3.00;60.60;;;-2.86;97.43;99586.72;4981080;28;129470;-75
2022/01/13 04:59:35;;;;;;;64.97;28.85;;;-3.00;61.00;;;-2.80;97.39;99595.69;4983089;28;117931;-76
2022/01/13 05:02:05;;;;;;;69.40;29.55;;;-3.00;61.50;;;-2.83;97.17;99588.94;4983036;28;119163;-76
2022/01/13 05:04:34;;;;;;;67.43;30.20;;;-3.00;62.50;;;-3.00;98.29;99586.06;4983668;28;128871;-76
2022/01/13 05:07:02;;;;;;;69.50;31.25;;;-3.00;63.00;;;-2.94;98.52;99573.75;4983770;28;129581;-72
2022/01/13 05:09:31;;;;;;;67.43;30.58;;;-3.00;64.10;;;-2.95;98.43;99561.50;4983817;28;122468;-77
2022/01/13 05:12:01;;;;;;;77.15;30.55;;;-3.00;65.50;;;-3.00;98.34;99543.56;4983523;28;122066;-76
2022/01/13 05:14:30;;;;;;;69.60;31.17;;;-3.00;65.70;;;-2.97;98.58;99527.19;4981944;28;130025;-76
2022/01/13 05:17:46;;;;;;;71.63;32.40;;;-3.00;66.90;;;-3.08;99.51;99527.94;4981559;28;129469;-76
2022/01/13 05:20:16;;;;;;;71.50;31.50;;;-3.00;67.80;;;-2.96;99.16;99502.28;4985082;28;119434;-76
2022/01/13 05:22:44;;;;;;;66.35;31.42;;;-3.00;68.60;;;-3.00;99.72;99492.31;4984314;28;119163;-76
2022/01/13 05:25:13;;;;;;;75.13;31.95;;;-3.00;70.00;;;-3.04;99.83;99496.44;4983782;28;130126;-76
2022/01/13 05:27:41;;;;;;;70.25;31.13;;;-3.00;71.50;;;-3.07;100.00;99485.25;4982685;28;130252;-76
2022/01/13 05:30:11;;;;;;;76.55;33.47;;;-3.00;73.80;;;-3.18;100.00;99483.34;4982111;28;119795;-75
2022/01/13 05:32:43;;;;;;;77.05;32.33;;;-3.00;77.80;;;-3.10;100.00;99475.06;4983432;28;119191;-78
2022/01/13 05:35:12;;;;;;;72.53;31.77;;;-3.00;80.20;;;-3.26;100.00;99484.44;4980404;28;130025;-75
2022/01/13 05:37:41;;;;;;;71.93;32.13;;;-3.00;84.20;;;-3.02;100.00;99468.63;4982628;28;128732;-75
2022/01/13 05:40:13;;;;;;;72.05;34.05;;;-3.00;88.00;;;-3.09;100.00;99459.94;4981549;28;119861;-75
2022/01/13 05:42:42;;;;;;;71.13;30.55;;;-2.90;90.20;;;-3.12;100.00;99449.75;4983540;28;119730;-74
2022/01/13 05:45:16;;;;;;;74.72;31.98;;;-2.90;92.00;;;-3.12;100.00;99444.44;4982646;28;129750;-75
2022/01/13 05:47:48;;;;;;;75.90;33.58;;;-2.90;93.00;;;-3.15;100.00;99450.19;4981298;28;130150;-75
2022/01/13 05:50:20;;;;;;;71.82;30.17;;;-2.80;93.80;;;-3.09;100.00;99430.72;4983374;28;119456;-75
2022/01/13 05:52:49;;;;;;;77.63;33.78;;;-2.80;94.40;;;-2.93;100.00;99419.50;4983727;28;119562;-76
2022/01/13 05:55:19;;;;;;;73.80;33.00;;;-2.80;94.90;;;-2.85;100.00;99412.22;4982133;28;129898;-76
2022/01/13 05:57:47;;;;;;;68.80;30.35;;;-2.70;95.30;;;-2.75;100.00;99407.19;4980809;28;129816;-76
2022/01/13 06:00:19;;;;;;;87.05;33.90;;;-2.70;96.00;;;-2.84;100.00;99403.25;4982259;28;122469;-75
2022/01/13 06:02:50;;;;;;;76.43;31.67;;;-2.60;97.00;;;-2.82;100.00;99396.69;4983111;28;121679;-76
2022/01/13 06:05:19;;;;;;;76.55;32.85;;;-2.60;97.60;;;-2.86;100.00;99389.38;4981859;28;130172;-76
2022/01/13 06:07:48;;;;;;;80.00;30.80;;;-2.60;98.20;;;-2.81;100.00;99386.84;4984270;28;129877;-75
2022/01/13 06:10:19;;;;;;;75.45;33.90;;;-2.60;98.90;;;-2.70;100.00;99391.38;4985939;28;120154;-76
2022/01/13 06:12:49;;;;;;;78.22;31.23;;;-2.50;99.40;;;-2.69;100.00;99389.56;4984658;28;119387;-76
2022/01/13 06:15:21;;;;;;;84.43;33.65;;;-2.50;99.90;;;-2.66;100.00;99384.59;4983345;28;129765;-74
2022/01/13 06:17:53;;;;;;;76.22;31.00;;;-2.40;99.90;;;-2.61;100.00;99387.38;4984801;28;129646;-75
2022/01/13 06:20:23;;;;;;;76.50;31.75;;;-2.40;99.90;;;-2.61;100.00;99386.56;4969650;28;118902;-75
2022/01/13 06:22:54;;;;;;;73.47;30.98;;;-2.30;99.90;;;-2.62;100.00;99369.78;4986195;28;119364;-76
2022/01/13 06:25:23;;;;;;;78.22;32.15;;;-2.30;99.90;;;-2.49;100.00;99381.25;4982740;28;130004;-75
2022/01/13 06:27:51;;;;;;;75.43;30.60;;;-2.30;99.90;;;-2.41;100.00;99372.97;4986921;28;130432;-75
2022/01/13 06:30:20;;;;;;;74.90;30.98;;;-2.20;99.90;;;-2.39;100.00;99368.22;4984250;28;119433;-76
2022/01/13 06:32:50;;;;;;;71.55;30.25;;;-2.20;99.90;;;-2.30;100.00;99366.06;4984495;28;119585;-76
2022/01/13 06:35:19;;;;;;;70.65;29.80;;;-2.10;99.90;;;-2.32;100.00;99368.94;4983834;28;130197;-76
2022/01/13 06:37:48;;;;;;;68.43;28.38;;;-2.10;99.90;;;-2.21;100.00;99370.78;4983938;28;129824;-75
2022/01/13 06:40:17;;;;;;;67.95;28.70;;;-2.00;99.90;;;-2.09;100.00;99356.69;4969352;28;118588;-75
2022/01/13 06:42:46;;;;;;;63.90;28.90;;;-2.00;99.90;;;-2.05;100.00;99358.63;4984315;28;119574;-75
2022/01/13 06:45:14;;;;;;;66.95;27.67;;;-2.00;99.90;;;-2.08;100.00;99358.31;4983578;28;130297;-76
2022/01/13 06:47:43;;;;;;;72.22;29.38;;;-1.90;99.90;;;-2.00;100.00;99360.59;4985474;28;128624;-77
2022/01/13 06:50:13;;;;;;;71.55;29.42;;;-1.90;99.90;;;-2.04;100.00;99370.06;4983404;28;120974;-72
2022/01/13 06:52:42;;;;;;;65.78;28.40;;;-1.90;99.90;;;-2.02;100.00;99368.03;4983894;28;122004;-72
2022/01/13 06:55:11;;;;;;;72.35;29.63;;;-1.90;99.90;;;-1.94;100.00;99365.00;4980969;28;130753;-74
2022/01/13 06:57:39;;;;;;;73.00;31.38;;;-1.80;99.90;;;-1.95;100.00;99359.91;4981712;28;130686;-71
2022/01/13 07:00:10;;;;;;;68.50;29.98;;;-1.80;99.90;;;-2.03;100.00;99353.09;4982721;28;119104;-72
2022/01/13 07:02:39;;;;;;;70.53;28.15;;;-1.80;99.90;;;-2.00;100.00;99360.59;4983415;28;119630;-72
2022/01/13 07:05:09;;;;;;;70.60;30.63;;;-1.80;99.90;;;-2.08;100.00;99350.31;4969382;28;130485;-74
2022/01/13 07:07:41;;;;;;;71.35;29.70;;;-1.80;99.90;;;-2.02;100.00;99360.03;4962175;28;130542;-72
2022/01/13 07:10:12;;;;;;;73.72;28.83;;;-1.80;99.90;;;-1.94;100.00;99369.53;4962791;28;120331;-72
2022/01/13 07:12:41;;;;;;;77.13;29.73;;;-1.80;99.90;;;-1.99;100.00;99351.59;4993523;28;119945;-72
2022/01/13 07:15:11;;;;;;;66.40;29.15;;;-1.80;99.90;;;-1.97;100.00;99338.88;4960104;28;130879;-72
2022/01/13 07:17:41;;;;;;;69.78;29.35;;;-1.70;99.90;;;-1.94;100.00;99348.25;4963668;28;130629;-72
2022/01/13 07:20:11;;;;;;;75.13;30.23;;;-1.70;99.90;;;-1.97;100.00;99325.56;4962118;28;120082;-73
2022/01/13 07:22:42;;;;;;;72.13;28.02;;;-1.70;99.90;;;-1.99;100.00;99317.03;4961971;28;119654;-72
2022/01/13 07:25:11;;;;;;;60.42;26.95;;;-1.70;99.90;;;-1.94;100.00;99317.13;4962191;28;129497;-73
2022/01/13 07:27:40;;;;;;;74.75;29.33;;;-1.70;99.90;;;-1.95;100.00;99299.53;4996973;28;129094;-75
2022/01/13 07:30:10;;;;;;;62.35;26.75;;;-1.60;99.90;;;-1.85;100.00;99283.78;4977051;28;119920;-76
2022/01/13 07:32:39;;;;;;;66.95;26.88;;;-1.60;99.90;;;-1.75;100.00;99293.03;4963036;28;119391;-73
2022/01/13 07:35:10;;;;;;;67.07;27.27;;;-1.60;99.90;;;-1.65;100.00;99291.38;4962615;28;130791;-73
2022/01/13 07:37:42;;;;;;;70.78;26.10;;;-1.60;99.90;;;-1.63;100.00;99291.16;4980932;28;130439;-73
2022/01/13 07:40:15;;;;;;;61.75;28.45;;;-1.50;99.90;;;-1.61;100.00;99293.56;4982565;28;121981;-73
2022/01/13 07:42:43;;;;;;;75.05;27.83;;;-1.50;99.90;;;-1.66;100.00;99302.25;4981429;28;121684;-73
2022/01/13 07:45:14;;;;;;;60.72;26.80;;;-1.50;99.90;;;-1.62;100.00;99290.13;4981331;28;129869;-73
2022/01/13 07:47:43;;;;;;;64.30;25.55;;;-1.50;99.90;;;-1.70;100.00;99274.50;4981695;28;130109;-73
2022/01/13 07:50:14;;;;;;;58.75;25.25;;;-1.50;99.90;;;-1.69;100.00;99276.13;4981533;28;120051;-74
2022/01/13 07:52:44;;;;;;;61.03;24.63;;;-1.50;99.90;;;-1.71;100.00;99283.53;4981085;28;119373;-74
2022/01/13 07:55:13;;;;;;;58.25;23.55;;;-1.40;99.90;;;-1.64;100.00;99273.56;4983354;28;129676;-74
2022/01/13 07:57:42;;;;;;;55.05;24.92;;;-1.50;99.90;;;-1.60;100.00;99263.25;4980018;28;129976;-74
2022/01/13 08:00:14;;;;;;;55.97;24.13;;;-1.40;99.90;;;-1.58;100.00;99269.94;4982456;28;120828;-74
2022/01/13 08:02:43;;;;;;;47.70;20.73;;;-1.40;99.90;;;-1.65;100.00;99266.63;4981167;28;119805;-74
2022/01/13 08:05:12;;;;;;;51.33;22.00;;;-1.30;99.90;;;-1.57;100.00;99279.56;4982611;28;130080;-74
2022/01/13 08:07:41;;;;;;;53.20;22.92;;;-1.30;99.90;;;-1.45;100.00;99288.31;4983361;28;129916;-72
2022/01/13 08:10:11;;;;;;;54.53;22.63;;;-1.30;99.90;;;-1.32;100.00;99313.03;4983270;28;119630;-73
2022/01/13 08:12:41;;;;;;;51.03;20.77;;;-1.30;99.90;;;-1.31;100.00;99330.59;4982325;28;120196;-73
2022/01/13 08:15:13;;;;;;;45.97;20.02;;;-1.20;99.90;;;-1.34;100.00;99315.09;4980837;28;129769;-73
2022/01/13 08:20:29;;;;;;;54.05;21.67;;;-1.20;99.90;;;-1.21;100.00;99298.84;4980955;28;119957;-73
2022/01/13 08:22:58;;;;;;;45.75;19.90;;;-1.20;99.90;;;-1.25;100.00;99305.69;4981220;28;119656;-74
2022/01/13 08:25:28;;;;;;;41.70;19.90;;;-1.20;99.90;;;-1.31;100.00;99312.78;4983094;28;129815;-73
2022/01/13 08:27:58;;;;;;;43.45;19.52;;;-1.20;99.90;;;-1.34;100.00;99299.13;4979943;28;129774;-73
2022/01/13 08:30:26;;;;;;;44.40;19.92;;;-1.20;99.90;;;-1.23;100.00;99295.63;4982125;28;121946;-73
2022/01/13 08:32:54;;;;;;;43.20;18.38;;;-1.20;99.90;;;-1.29;100.00;99281.41;4983939;28;121860;-74
2022/01/13 08:35:23;;;;;;;42.13;18.42;;;-1.20;99.90;;;-1.25;100.00;99294.25;4980717;28;129833;-73
2022/01/13 08:37:52;;;;;;;43.88;18.67;;;-1.10;99.90;;;-1.18;100.00;99295.72;4981156;28;130510;-73
2022/01/13 08:40:21;;;;;;;42.33;17.63;;;-1.10;99.90;;;-1.13;100.00;99290.47;4980800;28;120511;-73
2022/01/13 08:42:50;;;;;;;43.17;17.58;;;-1.00;99.90;;;-1.17;100.00;99297.34;4980800;28;119305;-73
2022/01/13 08:45:19;;;;;;;40.35;17.35;;;-1.00;99.90;;;-1.03;100.00;99297.03;4982541;28;130395;-74
2022/01/13 08:47:47;;;;;;;34.65;16.42;;;-1.00;99.90;;;-1.12;100.00;99285.97;4979961;28;130082;-73
2022/01/13 08:50:16;;;;;;;38.28;16.88;;;-0.90;99.90;;;-1.03;100.00;99313.81;4980888;28;119568;-73
2022/01/13 08:52:45;;;;;;;41.78;18.65;;;-0.90;99.90;;;-1.06;100.00;99316.16;4982356;28;119447;-73
2022/01/13 08:55:14;;;;;;;37.38;15.18;;;-0.90;99.90;;;-1.04;100.00;99304.22;4978616;28;129877;-73
2022/01/13 08:57:42;;;;;;;39.58;16.80;;;-0.90;99.90;;;-1.05;100.00;99275.94;4982224;28;129689;-73
2022/01/13 09:00:15;;;;;;;38.55;16.98;;;-0.90;99.90;;;-1.02;100.00;99256.03;4980652;28;119698;-74
2022/01/13 09:02:45;;;;;;;36.28;14.93;;;-0.90;99.90;;;-1.12;100.00;99244.16;4982466;28;119984;-74
2022/01/13 09:05:18;;;;;;;34.08;15.55;;;-0.90;99.90;;;-1.04;100.00;99240.28;4979879;28;129798;-74
2022/01/13 09:07:47;;;;;;;33.15;15.70;;;-0.90;99.90;;;-1.00;100.00;99224.63;4979525;28;129814;-74
2022/01/13 09:10:17;;;;;;;37.33;15.10;;;-0.80;99.90;;;-0.91;100.00;99217.84;4979345;28;119641;-73
2022/01/13 09:12:46;;;;;;;29.25;13.75;;;-0.80;99.90;;;-0.89;100.00;99199.75;4979570;28;119851;-74
2022/01/13 09:15:18;;;;;;;28.88;12.50;;;-0.70;99.90;;;-0.69;100.00;99198.44;4980987;28;130219;-74
2022/01/13 09:17:51;;;;;;;36.08;15.38;;;-0.70;99.90;;;-0.68;100.00;99184.09;4981406;28;130607;-74
2022/01/13 09:20:20;;;;;;;33.85;14.95;;;-0.70;99.90;;;-0.78;100.00;99169.56;4981221;28;121060;-73
2022/01/13 09:22:49;;;;;;;31.25;14.30;;;-0.70;99.90;;;-0.86;100.00;99187.81;4983113;28;121804;-74
2022/01/13 09:25:18;;;;;;;28.67;12.90;;;-0.70;99.90;;;-0.86;100.00;99177.16;4979682;28;130281;-74
2022/01/13 09:27:47;;;;;;;29.13;13.65;;;-0.70;99.90;;;-0.99;100.00;99188.94;4981802;28;129876;-74
2022/01/13 09:30:17;;;;;;;24.85;12.30;;;-0.70;99.90;;;-1.00;100.00;99179.34;4980607;28;119955;-73
2022/01/13 09:32:46;;;;;;;26.17;12.60;;;-0.70;99.90;;;-0.86;100.00;99161.16;4980124;28;119531;-73
2022/01/13 09:35:16;;;;;;;35.15;13.48;;;-0.70;99.90;;;-0.80;100.00;99179.63;4981539;28;129211;-72
2022/01/13 09:37:44;;;;;;;28.35;12.10;;;-0.70;99.90;;;-0.63;100.00;99210.78;4980123;28;130264;-74
2022/01/13 09:40:15;;;;;;;28.85;12.45;;;-0.50;99.90;;;-0.52;100.00;99182.44;4983214;28;119709;-73
2022/01/13 09:42:46;;;;;;;26.15;11.77;;;-0.50;99.90;;;-0.51;100.00;99179.50;4983304;28;119711;-74
2022/01/13 09:45:18;;;;;;;23.20;12.18;;;-0.40;99.90;;;-0.56;100.00;99163.47;4980936;28;130292;-74
2022/01/13 09:47:48;;;;;;;22.65;11.55;;;-0.30;99.90;;;-0.39;100.00;99177.53;4985796;28;129819;-73
2022/01/13 09:50:21;;;;;;;22.77;11.35;;;-0.40;99.90;;;-0.46;100.00;99182.25;4984366;28;119746;-73
2022/01/13 09:52:51;;;;;;;22.30;10.20;;;-0.30;99.90;;;-0.35;100.00;99187.72;4984355;28;120071;-73
2022/01/13 09:55:20;;;;;;;22.58;10.70;;;-0.30;99.90;;;-0.29;100.00;99178.72;4985035;28;128564;-73
2022/01/13 09:57:54;;;;;;;22.55;10.98;;;-0.20;99.90;;;-0.23;100.00;99172.41;4987188;28;103028;-73
2022/01/13 10:00:26;;;;;;;19.10;10.32;;;-0.20;98.90;;;-0.22;100.00;99161.50;4983425;28;119771;-73
2022/01/13 10:02:56;;;;;;;19.58;9.40;;;-0.10;97.40;;;-0.21;100.00;99154.28;4982189;28;119923;-73
2022/01/13 10:05:25;;;;;;;20.83;10.20;;;-0.20;96.60;;;-0.04;100.00;99141.66;4981810;28;130241;-73
2022/01/13 10:07:55;;;;;;;21.42;10.13;;;-0.10;97.00;;;0.08;100.00;99127.38;4982224;28;129594;-73
2022/01/13 10:10:27;;;;;;;20.58;9.23;;;0.10;95.80;;;0.12;100.00;99128.50;4981897;28;122071;-73
2022/01/13 10:13:09;;;;;;;18.95;10.15;;;0.00;94.00;;;0.12;100.00;99123.16;4965493;28;121794;-73
2022/01/13 10:18:43;;;;;;;16.95;8.73;;;0.10;92.50;;;-0.06;100.00;99098.44;4982807;28;129970;-74
2022/01/13 10:21:14;;;;;;;18.60;9.27;;;0.10;91.90;;;0.11;100.00;99089.50;4984965;28;119564;-73
2022/01/13 10:24:02;;;;;;;20.95;8.90;;;0.20;92.00;;;0.01;100.00;99073.44;4983010;28;120448;-73
2022/01/13 10:26:31;;;;;;;18.02;8.50;;;0.00;91.80;;;0.03;100.00;99044.63;4982272;28;130160;-73
2022/01/13 10:29:00;;;;;;;19.80;8.77;;;0.10;92.30;;;0.14;100.00;99054.31;4982825;28;130119;-73